createdAt,value
2023-04-27T00:00:03.592Z,54.79
2023-04-27T00:01:03.539Z,55.91
2023-04-27T00:02:03.669Z,56.07
2023-04-27T00:03:03.757Z,56.24
2023-04-27T00:04:03.712Z,58.49
2023-04-27T00:05:03.855Z,56.72
2023-04-27T00:06:03.581Z,55.91
2023-04-27T00:07:03.528Z,52.21
2023-04-27T00:08:03.515Z,54.46
2023-04-27T00:09:03.504Z,58.01
2023-04-27T00:10:03.517Z,59.30
2023-04-27T00:11:03.512Z,52.21
2023-04-27T00:12:03.534Z,55.75
2023-04-27T00:13:03.488Z,57.20
2023-04-27T00:14:03.496Z,53.98
2023-04-27T00:15:03.488Z,53.98
2023-04-27T00:16:03.638Z,58.97
2023-04-27T00:17:03.492Z,50.60
2023-04-27T00:18:03.504Z,48.34
2023-04-27T00:19:03.479Z,55.59
2023-04-27T00:20:03.472Z,56.40
2023-04-27T00:21:03.447Z,52.05
2023-04-27T00:22:03.447Z,50.92
2023-04-27T00:23:03.441Z,57.04
2023-04-27T00:24:03.444Z,50.92
2023-04-27T00:25:03.449Z,49.95
2023-04-27T00:26:03.450Z,53.66
2023-04-27T00:27:03.412Z,56.07
2023-04-27T00:28:03.479Z,52.69
2023-04-27T00:29:03.488Z,55.59
2023-04-27T00:30:03.408Z,55.43
2023-04-27T00:31:03.421Z,53.98
2023-04-27T00:32:03.454Z,55.27
2023-04-27T00:33:03.434Z,52.05
2023-04-27T00:34:03.416Z,51.08
2023-04-27T00:35:03.398Z,52.37
2023-04-27T00:36:03.402Z,53.98
2023-04-27T00:37:03.358Z,56.24
2023-04-27T00:38:03.365Z,54.62
2023-04-27T00:39:03.375Z,56.24
2023-04-27T00:40:03.356Z,53.50
2023-04-27T00:41:03.340Z,49.31
2023-04-27T00:42:03.378Z,52.37
2023-04-27T00:43:03.322Z,53.50
2023-04-27T00:44:03.335Z,53.98
2023-04-27T00:45:03.362Z,51.72
2023-04-27T00:46:03.374Z,55.27
2023-04-27T00:47:03.301Z,52.37
2023-04-27T00:48:03.377Z,53.82
2023-04-27T00:49:03.293Z,53.17
2023-04-27T00:50:03.329Z,58.49
2023-04-27T00:51:03.277Z,52.53
2023-04-27T00:52:03.300Z,53.17
2023-04-27T00:53:03.264Z,50.76
2023-04-27T00:54:03.272Z,56.88
2023-04-27T00:55:03.264Z,56.56
2023-04-27T00:56:03.296Z,53.66
2023-04-27T00:57:03.235Z,53.66
2023-04-27T00:58:03.249Z,54.79
2023-04-27T00:59:03.266Z,56.40
2023-04-27T01:00:03.262Z,55.43
2023-04-27T01:01:03.243Z,56.24
2023-04-27T01:02:03.284Z,58.01
2023-04-27T01:03:03.294Z,55.91
2023-04-27T01:04:03.502Z,57.36
2023-04-27T01:05:03.203Z,55.11
2023-04-27T01:06:03.236Z,53.50
2023-04-27T01:07:03.244Z,57.04
2023-04-27T01:08:03.226Z,57.69
2023-04-27T01:09:03.175Z,52.21
2023-04-27T01:10:03.182Z,53.82
2023-04-27T01:11:03.167Z,51.88
2023-04-27T01:12:03.175Z,51.24
2023-04-27T01:13:03.181Z,52.37
2023-04-27T01:14:03.181Z,55.75
2023-04-27T01:15:03.137Z,56.07
2023-04-27T01:16:03.167Z,51.56
2023-04-27T01:17:03.143Z,51.88
2023-04-27T01:18:03.180Z,57.85
2023-04-27T01:19:03.135Z,56.72
2023-04-27T01:20:03.134Z,54.95
2023-04-27T01:21:03.125Z,57.20
2023-04-27T01:22:03.113Z,53.98
2023-04-27T01:23:03.102Z,54.14
2023-04-27T01:24:03.134Z,54.30
2023-04-27T01:25:03.096Z,53.33
2023-04-27T01:26:03.108Z,56.88
2023-04-27T01:27:03.093Z,54.79
2023-04-27T01:28:03.088Z,52.05
2023-04-27T01:29:03.068Z,55.75
2023-04-27T01:30:03.101Z,54.30
2023-04-27T01:31:03.069Z,49.31
2023-04-27T01:32:03.082Z,49.47
2023-04-27T01:33:03.127Z,55.11
2023-04-27T01:34:03.072Z,54.79
2023-04-27T01:35:03.028Z,57.69
2023-04-27T01:36:03.038Z,56.07
2023-04-27T01:37:03.013Z,53.50
2023-04-27T01:38:03.033Z,55.27
2023-04-27T01:39:03.016Z,54.62
2023-04-27T01:40:03.046Z,54.46
2023-04-27T01:41:02.979Z,58.33
2023-04-27T01:42:02.999Z,53.50
2023-04-27T01:43:02.980Z,54.30
2023-04-27T01:44:02.988Z,55.43
2023-04-27T01:45:03.004Z,54.30
2023-04-27T01:46:03.025Z,52.69
2023-04-27T01:47:02.953Z,55.27
2023-04-27T01:48:02.998Z,57.04
2023-04-27T01:49:02.949Z,54.62
2023-04-27T01:50:02.971Z,53.50
2023-04-27T01:51:02.952Z,54.79
2023-04-27T01:52:02.964Z,54.79
2023-04-27T01:53:02.925Z,57.36
2023-04-27T01:54:02.940Z,56.07
2023-04-27T01:55:02.923Z,57.69
2023-04-27T01:56:02.922Z,55.43
2023-04-27T01:57:02.914Z,54.30
2023-04-27T01:58:02.918Z,58.01
2023-04-27T01:59:02.913Z,54.95
2023-04-27T02:00:02.948Z,53.98
2023-04-27T02:01:02.888Z,56.56
2023-04-27T02:02:03.091Z,58.17
2023-04-27T02:03:03.040Z,57.85
2023-04-27T02:04:03.184Z,53.50
2023-04-27T02:05:02.873Z,53.17
2023-04-27T02:06:02.909Z,49.31
2023-04-27T02:07:02.865Z,55.11
2023-04-27T02:08:02.914Z,51.56
2023-04-27T02:09:02.839Z,52.53
2023-04-27T02:10:02.852Z,56.24
2023-04-27T02:11:02.842Z,55.91
2023-04-27T02:12:02.957Z,57.69
2023-04-27T02:13:02.826Z,54.95
2023-04-27T02:14:02.867Z,55.43
2023-04-27T02:15:02.803Z,51.40
2023-04-27T02:16:02.851Z,58.01
2023-04-27T02:17:02.817Z,53.17
2023-04-27T02:18:02.814Z,55.11
2023-04-27T02:19:02.798Z,56.72
2023-04-27T02:20:02.824Z,56.07
2023-04-27T02:21:02.761Z,56.24
2023-04-27T02:22:02.811Z,54.46
2023-04-27T02:23:02.789Z,53.98
2023-04-27T02:24:02.786Z,52.37
2023-04-27T02:25:02.765Z,52.53
2023-04-27T02:26:02.787Z,53.01
2023-04-27T02:27:02.752Z,55.11
2023-04-27T02:28:02.777Z,54.46
2023-04-27T02:29:02.726Z,56.72
2023-04-27T02:30:02.778Z,56.07
2023-04-27T02:31:02.730Z,57.36
2023-04-27T02:32:02.782Z,54.30
2023-04-27T02:33:02.736Z,55.43
2023-04-27T02:34:02.748Z,56.07
2023-04-27T02:35:02.701Z,57.52
2023-04-27T02:36:02.717Z,55.27
2023-04-27T02:37:02.697Z,55.75
2023-04-27T02:38:02.733Z,58.49
2023-04-27T02:39:02.681Z,53.50
2023-04-27T02:40:02.692Z,51.40
2023-04-27T02:41:02.702Z,57.36
2023-04-27T02:42:02.673Z,54.95
2023-04-27T02:43:02.666Z,57.36
2023-04-27T02:44:02.739Z,56.07
2023-04-27T02:45:02.642Z,59.78
2023-04-27T02:46:02.666Z,56.88
2023-04-27T02:47:02.706Z,58.33
2023-04-27T02:48:02.674Z,57.04
2023-04-27T02:49:02.629Z,56.88
2023-04-27T02:50:02.640Z,57.85
2023-04-27T02:51:02.633Z,59.78
2023-04-27T02:52:02.625Z,58.65
2023-04-27T02:53:02.609Z,57.04
2023-04-27T02:54:02.615Z,58.01
2023-04-27T02:55:02.597Z,59.14
2023-04-27T02:56:02.620Z,57.85
2023-04-27T02:57:02.583Z,58.49
2023-04-27T02:58:02.621Z,58.97
2023-04-27T02:59:02.570Z,58.97
2023-04-27T03:00:03.848Z,57.36
2023-04-27T03:01:02.620Z,57.52
2023-04-27T03:02:02.611Z,58.17
2023-04-27T03:03:02.650Z,56.72
2023-04-27T03:04:02.658Z,58.17
2023-04-27T03:05:02.526Z,60.26
2023-04-27T03:06:02.549Z,60.42
2023-04-27T03:07:02.564Z,59.14
2023-04-27T03:08:02.568Z,58.97
2023-04-27T03:09:02.530Z,58.01
2023-04-27T03:10:02.533Z,57.85
2023-04-27T03:11:02.497Z,57.69
2023-04-27T03:12:02.566Z,57.52
2023-04-27T03:13:02.486Z,60.59
2023-04-27T03:14:02.484Z,59.30
2023-04-27T03:15:02.503Z,58.49
2023-04-27T03:16:02.551Z,58.17
2023-04-27T03:17:02.485Z,60.26
2023-04-27T03:18:02.564Z,56.88
2023-04-27T03:19:02.439Z,57.04
2023-04-27T03:20:02.467Z,58.97
2023-04-27T03:21:02.456Z,60.10
2023-04-27T03:22:02.456Z,60.26
2023-04-27T03:23:02.465Z,58.65
2023-04-27T03:24:02.440Z,60.10
2023-04-27T03:25:02.444Z,60.42
2023-04-27T03:26:02.419Z,61.23
2023-04-27T03:27:02.418Z,61.71
2023-04-27T03:28:02.407Z,59.62
2023-04-27T03:29:02.410Z,58.49
2023-04-27T03:30:02.432Z,58.81
2023-04-27T03:31:02.413Z,59.62
2023-04-27T03:32:02.525Z,58.01
2023-04-27T03:33:02.463Z,62.04
2023-04-27T03:34:02.416Z,61.87
2023-04-27T03:35:02.377Z,62.84
2023-04-27T03:36:02.366Z,62.04
2023-04-27T03:37:02.365Z,63.97
2023-04-27T03:38:02.367Z,61.87
2023-04-27T03:39:02.394Z,62.20
2023-04-27T03:40:02.337Z,61.87
2023-04-27T03:41:02.322Z,61.71
2023-04-27T03:42:02.345Z,63.16
2023-04-27T03:43:02.334Z,63.00
2023-04-27T03:44:02.319Z,60.10
2023-04-27T03:45:02.344Z,60.59
2023-04-27T03:46:02.347Z,60.75
2023-04-27T03:47:02.313Z,62.20
2023-04-27T03:48:02.356Z,61.71
2023-04-27T03:49:02.272Z,60.91
2023-04-27T03:50:02.319Z,61.55
2023-04-27T03:51:02.265Z,62.04
2023-04-27T03:52:02.288Z,61.07
2023-04-27T03:53:02.270Z,62.68
2023-04-27T03:54:02.267Z,60.10
2023-04-27T03:55:02.269Z,59.78
2023-04-27T03:56:02.265Z,59.78
2023-04-27T03:57:02.238Z,63.00
2023-04-27T03:58:03.214Z,61.55
2023-04-27T03:59:02.291Z,62.04
2023-04-27T04:00:02.240Z,60.91
2023-04-27T04:01:02.244Z,61.87
2023-04-27T04:02:02.284Z,62.04
2023-04-27T04:03:02.307Z,60.59
2023-04-27T04:04:02.351Z,62.20
2023-04-27T04:05:02.247Z,61.87
2023-04-27T04:06:02.242Z,60.10
2023-04-27T04:07:02.196Z,61.87
2023-04-27T04:08:02.193Z,61.23
2023-04-27T04:09:02.165Z,61.71
2023-04-27T04:10:02.183Z,62.68
2023-04-27T04:11:02.193Z,62.04
2023-04-27T04:12:02.198Z,64.13
2023-04-27T04:13:02.169Z,63.81
2023-04-27T04:14:02.176Z,62.52
2023-04-27T04:15:02.185Z,62.84
2023-04-27T04:16:02.189Z,64.13
2023-04-27T04:17:02.135Z,63.00
2023-04-27T04:18:02.170Z,61.71
2023-04-27T04:19:02.140Z,61.55
2023-04-27T04:20:02.119Z,62.52
2023-04-27T04:21:02.147Z,62.20
2023-04-27T04:22:02.114Z,62.20
2023-04-27T04:23:02.141Z,61.07
2023-04-27T04:24:02.102Z,61.71
2023-04-27T04:25:02.114Z,62.20
2023-04-27T04:26:02.226Z,63.49
2023-04-27T04:27:02.067Z,63.16
2023-04-27T04:28:02.093Z,63.00
2023-04-27T04:29:02.068Z,60.91
2023-04-27T04:30:02.092Z,61.87
2023-04-27T04:31:02.121Z,61.07
2023-04-27T04:32:02.065Z,63.65
2023-04-27T04:33:02.101Z,64.45
2023-04-27T04:34:02.056Z,62.04
2023-04-27T04:35:02.039Z,60.91
2023-04-27T04:36:02.055Z,63.65
2023-04-27T04:37:02.028Z,63.33
2023-04-27T04:38:02.028Z,61.71
2023-04-27T04:39:02.031Z,61.71
2023-04-27T04:40:02.037Z,63.65
2023-04-27T04:41:01.992Z,60.10
2023-04-27T04:42:01.996Z,62.20
2023-04-27T04:43:01.994Z,63.49
2023-04-27T04:44:01.999Z,62.68
2023-04-27T04:45:01.976Z,62.20
2023-04-27T04:46:01.995Z,61.71
2023-04-27T04:47:02.007Z,62.68
2023-04-27T04:48:01.977Z,62.68
2023-04-27T04:49:01.974Z,62.84
2023-04-27T04:50:02.003Z,62.20
2023-04-27T04:51:01.970Z,63.33
2023-04-27T04:52:01.956Z,61.71
2023-04-27T04:53:01.963Z,63.97
2023-04-27T04:54:02.297Z,61.71
2023-04-27T04:55:01.920Z,64.61
2023-04-27T04:56:01.968Z,61.87
2023-04-27T04:57:01.924Z,62.68
2023-04-27T04:58:01.942Z,63.65
2023-04-27T04:59:01.911Z,60.59
2023-04-27T05:00:01.943Z,62.84
2023-04-27T05:01:01.930Z,63.65
2023-04-27T05:02:01.932Z,63.81
2023-04-27T05:03:01.965Z,63.49
2023-04-27T05:04:02.145Z,61.55
2023-04-27T05:05:01.899Z,63.00
2023-04-27T05:06:01.881Z,62.20
2023-04-27T05:07:01.870Z,62.84
2023-04-27T05:08:01.865Z,63.49
2023-04-27T05:09:01.863Z,63.65
2023-04-27T05:10:01.898Z,61.71
2023-04-27T05:11:01.839Z,63.33
2023-04-27T05:12:01.868Z,61.71
2023-04-27T05:13:01.839Z,60.10
2023-04-27T05:14:01.896Z,61.07
2023-04-27T05:15:01.836Z,63.81
2023-04-27T05:16:01.880Z,63.00
2023-04-27T05:17:01.811Z,64.78
2023-04-27T05:18:01.944Z,63.97
2023-04-27T05:19:01.812Z,62.52
2023-04-27T05:20:01.855Z,63.16
2023-04-27T05:21:01.811Z,61.23
2023-04-27T05:22:01.796Z,60.75
2023-04-27T05:23:01.796Z,62.52
2023-04-27T05:24:02.032Z,63.49
2023-04-27T05:25:01.782Z,62.36
2023-04-27T05:26:01.781Z,60.91
2023-04-27T05:27:02.579Z,63.81
2023-04-27T05:28:01.800Z,62.68
2023-04-27T05:29:01.777Z,62.84
2023-04-27T05:30:01.777Z,61.39
2023-04-27T05:31:01.740Z,60.10
2023-04-27T05:32:01.906Z,62.04
2023-04-27T05:33:01.788Z,62.20
2023-04-27T05:34:01.735Z,61.23
2023-04-27T05:35:01.767Z,60.10
2023-04-27T05:36:01.722Z,62.84
2023-04-27T05:37:01.696Z,63.97
2023-04-27T05:38:01.709Z,64.45
2023-04-27T05:39:01.704Z,64.78
2023-04-27T05:40:01.753Z,63.65
2023-04-27T05:41:01.692Z,64.61
2023-04-27T05:42:01.699Z,63.16
2023-04-27T05:43:01.663Z,63.16
2023-04-27T05:44:01.679Z,63.33
2023-04-27T05:45:01.683Z,63.33
2023-04-27T05:46:01.796Z,57.85
2023-04-27T05:47:01.643Z,54.62
2023-04-27T05:48:01.795Z,59.46
2023-04-27T05:49:01.658Z,58.97
2023-04-27T05:50:01.664Z,59.14
2023-04-27T05:51:01.632Z,61.55
2023-04-27T05:52:01.711Z,62.20
2023-04-27T05:53:01.648Z,59.94
2023-04-27T05:54:01.650Z,59.62
2023-04-27T05:55:01.611Z,59.94
2023-04-27T05:56:01.664Z,58.49
2023-04-27T05:57:01.619Z,60.10
2023-04-27T05:58:08.288Z,60.42
2023-04-27T05:59:02.950Z,59.78
2023-04-27T06:00:01.625Z,59.78
2023-04-27T06:01:01.610Z,60.91
2023-04-27T06:02:01.678Z,59.30
2023-04-27T06:03:01.819Z,60.10
2023-04-27T06:04:01.877Z,59.78
2023-04-27T06:05:01.586Z,62.04
2023-04-27T06:06:01.586Z,59.46
2023-04-27T06:07:01.556Z,58.33
2023-04-27T06:08:01.564Z,59.78
2023-04-27T06:09:01.546Z,58.49
2023-04-27T06:10:01.533Z,58.49
2023-04-27T06:11:01.537Z,57.69
2023-04-27T06:12:01.514Z,58.17
2023-04-27T06:13:01.521Z,62.52
2023-04-27T06:14:01.526Z,60.10
2023-04-27T06:15:01.487Z,59.14
2023-04-27T06:16:01.509Z,58.33
2023-04-27T06:17:01.502Z,59.30
2023-04-27T06:18:01.544Z,59.14
2023-04-27T06:19:01.523Z,59.30
2023-04-27T06:20:01.473Z,59.62
2023-04-27T06:21:01.467Z,57.36
2023-04-27T06:22:01.477Z,56.40
2023-04-27T06:23:01.439Z,55.75
2023-04-27T06:24:01.453Z,57.36
2023-04-27T06:25:01.426Z,60.10
2023-04-27T06:26:01.462Z,59.46
2023-04-27T06:27:01.418Z,59.46
2023-04-27T06:28:01.436Z,60.26
2023-04-27T06:29:01.403Z,58.97
2023-04-27T06:30:01.429Z,59.62
2023-04-27T06:31:01.432Z,59.78
2023-04-27T06:32:01.548Z,57.85
2023-04-27T06:33:01.444Z,55.91
2023-04-27T06:34:01.386Z,56.07
2023-04-27T06:35:01.343Z,57.36
2023-04-27T06:36:01.410Z,58.17
2023-04-27T06:37:01.333Z,56.40
2023-04-27T06:38:01.586Z,59.14
2023-04-27T06:39:02.166Z,59.14
2023-04-27T06:40:01.343Z,56.40
2023-04-27T06:41:01.310Z,58.97
2023-04-27T06:42:01.319Z,56.40
2023-04-27T06:43:01.357Z,61.07
2023-04-27T06:44:01.395Z,61.07
2023-04-27T06:45:01.284Z,60.10
2023-04-27T06:46:01.315Z,59.62
2023-04-27T06:47:01.348Z,56.88
2023-04-27T06:48:01.300Z,56.40
2023-04-27T06:49:01.236Z,57.36
2023-04-27T06:50:01.274Z,59.62
2023-04-27T06:51:01.226Z,58.01
2023-04-27T06:52:01.239Z,58.33
2023-04-27T06:53:01.232Z,60.59
2023-04-27T06:54:01.238Z,59.46
2023-04-27T06:55:01.252Z,58.49
2023-04-27T06:56:01.210Z,57.20
2023-04-27T06:57:01.211Z,60.42
2023-04-27T06:58:01.192Z,58.17
2023-04-27T06:59:01.174Z,58.49
2023-04-27T07:00:01.247Z,58.97
2023-04-27T07:01:01.166Z,59.94
2023-04-27T07:02:01.204Z,60.10
2023-04-27T07:03:01.196Z,59.62
2023-04-27T07:04:01.202Z,59.30
2023-04-27T07:05:01.271Z,58.65
2023-04-27T07:06:01.154Z,58.33
2023-04-27T07:07:01.117Z,59.94
2023-04-27T07:08:04.653Z,59.94
2023-04-27T07:09:03.459Z,58.17
2023-04-27T07:10:01.129Z,59.94
2023-04-27T07:11:01.112Z,62.52
2023-04-27T07:12:01.088Z,60.59
2023-04-27T07:13:01.067Z,59.62
2023-04-27T07:14:01.104Z,56.07
2023-04-27T07:15:01.108Z,56.40
2023-04-27T07:16:01.152Z,53.66
2023-04-27T07:17:01.036Z,55.75
2023-04-27T07:18:01.097Z,59.30
2023-04-27T07:19:01.044Z,60.59
2023-04-27T07:20:01.102Z,58.65
2023-04-27T07:21:01.052Z,58.81
2023-04-27T07:22:01.046Z,60.10
2023-04-27T07:23:01.026Z,58.33
2023-04-27T07:24:01.013Z,56.24
2023-04-27T07:25:00.987Z,55.27
2023-04-27T07:26:01.028Z,56.07
2023-04-27T07:27:01.000Z,57.85
2023-04-27T07:28:00.979Z,58.49
2023-04-27T07:29:04.238Z,58.97
2023-04-27T07:30:00.987Z,56.88
2023-04-27T07:31:00.930Z,54.62
2023-04-27T07:32:01.013Z,58.49
2023-04-27T07:33:00.978Z,56.07
2023-04-27T07:34:00.939Z,59.14
2023-04-27T07:35:00.904Z,58.17
2023-04-27T07:36:00.928Z,58.33
2023-04-27T07:37:00.906Z,55.75
2023-04-27T07:38:00.896Z,56.88
2023-04-27T07:39:00.869Z,58.65
2023-04-27T07:40:00.894Z,59.94
2023-04-27T07:41:00.843Z,57.52
2023-04-27T07:42:00.901Z,56.88
2023-04-27T07:43:00.824Z,58.17
2023-04-27T07:44:00.871Z,57.04
2023-04-27T07:45:00.839Z,56.40
2023-04-27T07:46:00.880Z,57.85
2023-04-27T07:47:00.804Z,58.49
2023-04-27T07:48:00.844Z,57.69
2023-04-27T07:49:00.783Z,55.75
2023-04-27T07:50:00.789Z,55.27
2023-04-27T07:51:00.760Z,54.46
2023-04-27T07:52:00.776Z,57.52
2023-04-27T07:53:00.737Z,57.85
2023-04-27T07:54:00.799Z,58.97
2023-04-27T07:55:00.745Z,57.69
2023-04-27T07:56:00.733Z,59.78
2023-04-27T07:57:00.747Z,55.59
2023-04-27T07:58:00.717Z,57.20
2023-04-27T07:59:00.714Z,57.69
2023-04-27T08:00:00.756Z,56.07
2023-04-27T08:01:00.688Z,59.14
2023-04-27T08:02:17.728Z,57.36
2023-04-27T08:03:01.778Z,56.88
2023-04-27T08:04:00.976Z,58.49
2023-04-27T08:05:01.151Z,56.24
2023-04-27T08:06:00.935Z,56.88
2023-04-27T08:07:00.843Z,56.88
2023-04-27T08:08:00.752Z,57.20
2023-04-27T08:09:00.627Z,55.91
2023-04-27T08:10:00.629Z,56.72
2023-04-27T08:11:00.628Z,56.56
2023-04-27T08:12:00.638Z,57.04
2023-04-27T08:13:00.602Z,58.81
2023-04-27T08:14:00.594Z,59.30
2023-04-27T08:15:00.586Z,56.40
2023-04-27T08:16:00.599Z,58.97
2023-04-27T08:17:00.585Z,57.69
2023-04-27T08:18:00.644Z,59.94
2023-04-27T08:19:10.459Z,59.46
2023-04-27T08:20:01.560Z,56.40
2023-04-27T08:21:00.535Z,57.69
2023-04-27T08:22:00.551Z,59.14
2023-04-27T08:23:00.513Z,58.17
2023-04-27T08:24:00.567Z,57.20
2023-04-27T08:25:00.513Z,58.01
2023-04-27T08:26:00.508Z,59.46
2023-04-27T08:27:00.502Z,57.52
2023-04-27T08:28:00.504Z,56.88
2023-04-27T08:29:02.045Z,56.40
2023-04-27T08:30:01.512Z,55.91
2023-04-27T08:31:00.522Z,57.69
2023-04-27T08:32:00.456Z,58.97
2023-04-27T08:33:00.498Z,59.14
2023-04-27T08:34:00.452Z,59.30
2023-04-27T08:35:00.423Z,58.17
2023-04-27T08:36:00.447Z,59.14
2023-04-27T08:37:00.417Z,59.62
2023-04-27T08:38:00.424Z,56.40
2023-04-27T08:39:00.427Z,56.56
2023-04-27T08:40:00.404Z,57.20
2023-04-27T08:41:07.463Z,57.36
2023-04-27T08:42:01.407Z,56.56
2023-04-27T08:43:00.386Z,56.07
2023-04-27T08:44:00.373Z,56.07
2023-04-27T08:45:00.340Z,56.07
2023-04-27T08:46:00.390Z,59.46
2023-04-27T08:47:00.327Z,58.81
2023-04-27T08:48:00.370Z,56.40
2023-04-27T08:49:00.343Z,57.04
2023-04-27T08:50:00.323Z,59.30
2023-04-27T08:51:00.349Z,56.07
2023-04-27T08:52:00.338Z,58.65
2023-04-27T08:53:00.288Z,59.94
2023-04-27T08:54:00.320Z,58.17
2023-04-27T08:55:00.292Z,58.17
2023-04-27T08:56:00.283Z,59.14
2023-04-27T08:57:00.282Z,56.56
2023-04-27T08:58:00.274Z,57.52
2023-04-27T08:59:00.269Z,56.56
2023-04-27T09:00:00.309Z,57.52
2023-04-27T09:01:00.242Z,54.95
2023-04-27T09:02:00.306Z,57.52
2023-04-27T09:03:00.404Z,57.52
2023-04-27T09:04:00.616Z,57.04
2023-04-27T09:05:00.418Z,58.97
2023-04-27T09:06:05.179Z,58.01
2023-04-27T09:07:01.201Z,58.65
2023-04-27T09:08:00.221Z,58.49
2023-04-27T09:09:00.182Z,60.91
2023-04-27T09:10:00.176Z,58.17
2023-04-27T09:11:00.169Z,58.97
2023-04-27T09:12:00.185Z,59.94
2023-04-27T09:13:00.291Z,57.36
2023-04-27T09:14:00.165Z,58.65
2023-04-27T09:15:00.126Z,59.14
2023-04-27T09:16:00.142Z,59.62
2023-04-27T09:17:00.316Z,56.56
2023-04-27T09:18:00.226Z,58.49
2023-04-27T09:19:00.110Z,59.78
2023-04-27T09:20:00.127Z,57.85
2023-04-27T09:21:00.107Z,57.52
2023-04-27T09:22:00.139Z,56.72
2023-04-27T09:23:00.061Z,59.30
2023-04-27T09:24:00.090Z,57.04
2023-04-27T09:25:00.063Z,57.85
2023-04-27T09:26:00.088Z,57.69
2023-04-27T09:27:00.824Z,58.17
2023-04-27T09:28:00.071Z,59.62
2023-04-27T09:29:00.015Z,57.85
2023-04-27T09:30:00.038Z,58.49
2023-04-27T09:31:00.024Z,58.65
2023-04-27T09:32:00.056Z,56.07
2023-04-27T09:33:00.002Z,55.59
2023-04-27T09:34:00.013Z,56.07
2023-04-27T09:35:00.051Z,56.24
2023-04-27T09:35:59.988Z,56.07
2023-04-27T09:37:00.009Z,56.72
2023-04-27T09:38:00.050Z,58.65
2023-04-27T09:38:59.967Z,56.56
2023-04-27T09:40:00.064Z,59.46
2023-04-27T09:40:59.956Z,58.49
2023-04-27T09:41:59.940Z,57.36
2023-04-27T09:42:59.921Z,57.85
2023-04-27T09:43:59.908Z,56.56
2023-04-27T09:44:59.898Z,55.91
2023-04-27T09:45:59.973Z,56.72
2023-04-27T09:46:59.881Z,58.17
2023-04-27T09:47:59.946Z,56.07
2023-04-27T09:48:59.855Z,55.91
2023-04-27T09:49:59.879Z,55.27
2023-04-27T09:50:59.859Z,55.91
2023-04-27T09:51:59.867Z,56.07
2023-04-27T09:52:59.851Z,57.20
2023-04-27T09:53:59.889Z,57.36
2023-04-27T09:54:59.826Z,57.85
2023-04-27T09:55:59.826Z,57.69
2023-04-27T09:56:59.793Z,59.94
2023-04-27T09:57:59.806Z,58.33
2023-04-27T09:58:59.782Z,56.40
2023-04-27T09:59:59.821Z,56.56
2023-04-27T10:00:59.815Z,56.07
2023-04-27T10:02:02.777Z,55.91
2023-04-27T10:03:00.835Z,54.14
2023-04-27T10:03:59.917Z,55.75
2023-04-27T10:04:59.955Z,55.91
2023-04-27T10:05:59.775Z,57.20
2023-04-27T10:06:59.784Z,55.91
2023-04-27T10:07:59.746Z,55.91
2023-04-27T10:08:59.759Z,54.46
2023-04-27T10:09:59.769Z,57.20
2023-04-27T10:10:59.745Z,57.85
2023-04-27T10:11:59.738Z,55.11
2023-04-27T10:12:59.746Z,57.36
2023-04-27T10:13:59.691Z,56.88
2023-04-27T10:14:59.700Z,57.04
2023-04-27T10:15:59.701Z,56.07
2023-04-27T10:16:59.734Z,55.91
2023-04-27T10:17:59.774Z,56.72
2023-04-27T10:18:59.627Z,55.59
2023-04-27T10:19:59.654Z,56.72
2023-04-27T10:20:59.651Z,55.75
2023-04-27T10:21:59.635Z,54.46
2023-04-27T10:22:59.662Z,55.43
2023-04-27T10:23:59.637Z,55.59
2023-04-27T10:24:59.590Z,53.82
2023-04-27T10:25:59.605Z,55.11
2023-04-27T10:26:59.620Z,58.01
2023-04-27T10:27:59.654Z,57.52
2023-04-27T10:28:59.564Z,57.69
2023-04-27T10:29:59.591Z,55.75
2023-04-27T10:30:59.578Z,54.46
2023-04-27T10:31:59.558Z,58.49
2023-04-27T10:32:59.622Z,57.52
2023-04-27T10:33:59.565Z,56.72
2023-04-27T10:34:59.528Z,57.36
2023-04-27T10:35:59.568Z,57.36
2023-04-27T10:36:59.512Z,57.52
2023-04-27T10:37:59.531Z,58.01
2023-04-27T10:38:59.505Z,56.40
2023-04-27T10:40:00.125Z,57.20
2023-04-27T10:40:59.491Z,57.04
2023-04-27T10:41:59.513Z,58.49
2023-04-27T10:42:59.478Z,56.40
2023-04-27T10:43:59.468Z,57.69
2023-04-27T10:44:59.523Z,56.88
2023-04-27T10:45:59.516Z,56.56
2023-04-27T10:46:59.470Z,55.43
2023-04-27T10:47:59.505Z,56.72
2023-04-27T10:48:59.438Z,54.46
2023-04-27T10:49:59.444Z,56.88
2023-04-27T10:50:59.434Z,57.36
2023-04-27T10:51:59.451Z,58.33
2023-04-27T10:53:00.991Z,57.20
2023-04-27T10:53:59.446Z,59.30
2023-04-27T10:54:59.408Z,58.65
2023-04-27T10:55:59.394Z,57.69
2023-04-27T10:56:59.385Z,59.14
2023-04-27T10:57:59.405Z,57.36
2023-04-27T10:58:59.388Z,55.91
2023-04-27T10:59:59.380Z,56.07
2023-04-27T11:00:59.353Z,56.40
2023-04-27T11:01:59.463Z,58.01
2023-04-27T11:02:59.406Z,59.14
2023-04-27T11:03:59.350Z,57.04
2023-04-27T11:04:59.351Z,54.62
2023-04-27T11:05:59.388Z,56.07
2023-04-27T11:06:59.337Z,55.75
2023-04-27T11:07:59.344Z,57.04
2023-04-27T11:08:59.310Z,58.17
2023-04-27T11:09:59.315Z,58.97
2023-04-27T11:10:59.287Z,57.04
2023-04-27T11:11:59.281Z,58.01
2023-04-27T11:12:59.316Z,58.17
2023-04-27T11:13:59.339Z,57.36
2023-04-27T11:14:59.237Z,56.56
2023-04-27T11:15:59.320Z,56.40
2023-04-27T11:16:59.228Z,57.36
2023-04-27T11:17:59.282Z,58.17
2023-04-27T11:18:59.810Z,59.62
2023-04-27T11:19:59.244Z,56.72
2023-04-27T11:20:59.209Z,58.65
2023-04-27T11:21:59.224Z,56.40
2023-04-27T11:22:59.223Z,57.69
2023-04-27T11:23:59.234Z,58.97
2023-04-27T11:24:59.210Z,58.01
2023-04-27T11:25:59.200Z,57.20
2023-04-27T11:26:59.184Z,57.69
2023-04-27T11:27:59.177Z,58.49
2023-04-27T11:28:59.180Z,58.33
2023-04-27T11:29:59.149Z,58.17
2023-04-27T11:30:59.179Z,59.14
2023-04-27T11:31:59.188Z,58.01
2023-04-27T11:32:59.122Z,55.43
2023-04-27T11:33:59.120Z,55.91
2023-04-27T11:35:59.098Z,57.52
2023-04-27T11:37:07.253Z,57.52
2023-04-27T11:38:00.118Z,55.91
2023-04-27T11:38:59.314Z,56.24
2023-04-27T11:39:59.074Z,56.56
2023-04-27T11:40:59.068Z,57.04
2023-04-27T11:41:59.057Z,54.95
2023-04-27T11:42:59.029Z,58.17
2023-04-27T11:43:59.040Z,55.43
2023-04-27T11:44:59.060Z,56.88
2023-04-27T11:45:59.057Z,54.62
2023-04-27T11:46:59.018Z,55.11
2023-04-27T11:47:59.062Z,57.36
2023-04-27T11:48:58.996Z,58.49
2023-04-27T11:49:59.019Z,57.20
2023-04-27T11:50:58.997Z,55.43
2023-04-27T11:51:58.999Z,55.59
2023-04-27T11:52:58.996Z,56.07
2023-04-27T11:53:58.996Z,57.04
2023-04-27T11:54:58.960Z,58.97
2023-04-27T11:55:58.945Z,58.17
2023-04-27T11:56:58.922Z,53.98
2023-04-27T11:57:58.949Z,56.07
2023-04-27T11:58:58.910Z,56.24
2023-04-27T11:59:58.958Z,57.04
2023-04-27T12:00:58.920Z,58.01
2023-04-27T12:01:58.911Z,54.62
2023-04-27T12:02:59.090Z,56.56
2023-04-27T12:04:02.119Z,58.17
2023-04-27T12:04:59.075Z,58.17
2023-04-27T12:06:11.702Z,57.52
2023-04-27T12:06:59.864Z,58.65
2023-04-27T12:07:58.904Z,59.46
2023-04-27T12:08:58.830Z,58.17
2023-04-27T12:10:00.761Z,60.42
2023-04-27T12:10:58.816Z,57.36
2023-04-27T12:11:58.836Z,58.17
2023-04-27T12:12:58.808Z,55.27
2023-04-27T12:13:58.836Z,54.46
2023-04-27T12:14:58.804Z,57.20
2023-04-27T12:15:59.746Z,56.07
2023-04-27T12:16:58.836Z,56.88
2023-04-27T12:17:58.849Z,57.52
2023-04-27T12:18:58.775Z,56.88
2023-04-27T12:19:58.779Z,56.40
2023-04-27T12:21:02.745Z,56.88
2023-04-27T12:21:58.746Z,58.65
2023-04-27T12:22:58.749Z,59.14
2023-04-27T12:23:58.728Z,58.17
2023-04-27T12:24:58.709Z,58.49
2023-04-27T12:25:58.725Z,56.56
2023-04-27T12:26:58.695Z,57.85
2023-04-27T12:27:58.711Z,58.33
2023-04-27T12:28:58.730Z,58.49
2023-04-27T12:29:58.688Z,56.07
2023-04-27T12:30:58.696Z,59.30
2023-04-27T12:31:58.671Z,58.65
2023-04-27T12:32:58.670Z,58.65
2023-04-27T12:33:58.688Z,58.81
2023-04-27T12:34:58.652Z,57.52
2023-04-27T12:35:58.661Z,59.78
2023-04-27T12:36:58.625Z,59.14
2023-04-27T12:37:58.648Z,58.65
2023-04-27T12:38:58.621Z,62.20
2023-04-27T12:39:58.626Z,61.87
2023-04-27T12:40:58.618Z,59.78
2023-04-27T12:41:58.611Z,61.07
2023-04-27T12:43:00.935Z,61.55
2023-04-27T12:43:58.608Z,59.62
2023-04-27T12:44:58.579Z,60.26
2023-04-27T12:45:58.602Z,60.42
2023-04-27T12:46:58.550Z,57.85
2023-04-27T12:48:03.751Z,58.33
2023-04-27T12:48:59.534Z,59.14
2023-04-27T12:49:58.548Z,59.78
2023-04-27T12:50:58.525Z,60.75
2023-04-27T12:51:58.533Z,61.39
2023-04-27T12:52:58.535Z,61.55